sensor_id;sensor_type;location;lat;lon;timestamp;temperature;humidity
83500;DHT22;73433;50.908;13.746;2023-12-28T00:00:02;8.10;53.40
83500;DHT22;73433;50.908;13.746;2023-12-28T00:02:29;8.20;53.30
83500;DHT22;73433;50.908;13.746;2023-12-28T00:04:57;8.20;52.50
83500;DHT22;73433;50.908;13.746;2023-12-28T00:07:24;8.20;51.80
83500;DHT22;73433;50.908;13.746;2023-12-28T00:09:51;8.30;51.30
83500;DHT22;73433;50.908;13.746;2023-12-28T00:12:18;8.40;50.50
83500;DHT22;73433;50.908;13.746;2023-12-28T00:14:46;8.50;50.30
83500;DHT22;73433;50.908;13.746;2023-12-28T00:17:14;8.50;50.00
83500;DHT22;73433;50.908;13.746;2023-12-28T00:19:41;8.50;49.90
83500;DHT22;73433;50.908;13.746;2023-12-28T00:22:08;8.50;49.70
83500;DHT22;73433;50.908;13.746;2023-12-28T00:24:35;8.50;48.80
83500;DHT22;73433;50.908;13.746;2023-12-28T00:27:03;8.60;48.60
83500;DHT22;73433;50.908;13.746;2023-12-28T00:29:30;8.70;47.20
83500;DHT22;73433;50.908;13.746;2023-12-28T00:31:58;8.90;47.00
83500;DHT22;73433;50.908;13.746;2023-12-28T00:34:26;9.10;45.60
83500;DHT22;73433;50.908;13.746;2023-12-28T00:36:54;9.30;44.70
83500;DHT22;73433;50.908;13.746;2023-12-28T00:39:21;9.50;43.80
83500;DHT22;73433;50.908;13.746;2023-12-28T00:41:48;9.60;42.60
83500;DHT22;73433;50.908;13.746;2023-12-28T00:44:16;9.80;41.80
83500;DHT22;73433;50.908;13.746;2023-12-28T00:46:43;9.90;41.80
83500;DHT22;73433;50.908;13.746;2023-12-28T00:49:10;10.00;41.20
83500;DHT22;73433;50.908;13.746;2023-12-28T00:51:37;10.10;40.80
83500;DHT22;73433;50.908;13.746;2023-12-28T00:54:05;10.10;40.40
83500;DHT22;73433;50.908;13.746;2023-12-28T00:56:32;10.30;39.70
83500;DHT22;73433;50.908;13.746;2023-12-28T00:58:59;10.30;39.30
83500;DHT22;73433;50.908;13.746;2023-12-28T01:01:28;10.40;39.10
83500;DHT22;73433;50.908;13.746;2023-12-28T01:03:57;10.50;39.20
83500;DHT22;73433;50.908;13.746;2023-12-28T01:06:25;10.50;38.90
83500;DHT22;73433;50.908;13.746;2023-12-28T01:08:55;10.50;38.70
83500;DHT22;73433;50.908;13.746;2023-12-28T01:11:23;10.60;38.30
83500;DHT22;73433;50.908;13.746;2023-12-28T01:13:51;10.70;38.30
83500;DHT22;73433;50.908;13.746;2023-12-28T01:16:19;10.70;38.40
83500;DHT22;73433;50.908;13.746;2023-12-28T01:18:46;10.70;38.50
83500;DHT22;73433;50.908;13.746;2023-12-28T01:21:14;10.70;38.30
83500;DHT22;73433;50.908;13.746;2023-12-28T01:23:41;10.70;38.30
83500;DHT22;73433;50.908;13.746;2023-12-28T01:26:15;10.70;38.30
83500;DHT22;73433;50.908;13.746;2023-12-28T01:28:44;10.80;37.90
83500;DHT22;73433;50.908;13.746;2023-12-28T01:31:11;10.90;38.30
83500;DHT22;73433;50.908;13.746;2023-12-28T01:33:38;10.90;38.40
83500;DHT22;73433;50.908;13.746;2023-12-28T01:36:18;10.90;38.40
83500;DHT22;73433;50.908;13.746;2023-12-28T01:38:46;10.80;39.00
83500;DHT22;73433;50.908;13.746;2023-12-28T01:41:14;10.70;38.80
83500;DHT22;73433;50.908;13.746;2023-12-28T01:43:42;10.70;38.80
83500;DHT22;73433;50.908;13.746;2023-12-28T01:46:16;10.60;39.10
83500;DHT22;73433;50.908;13.746;2023-12-28T01:48:45;10.60;39.40
83500;DHT22;73433;50.908;13.746;2023-12-28T01:51:14;10.50;39.80
83500;DHT22;73433;50.908;13.746;2023-12-28T01:53:43;10.30;39.80
83500;DHT22;73433;50.908;13.746;2023-12-28T01:56:12;10.20;40.10
83500;DHT22;73433;50.908;13.746;2023-12-28T01:58:42;10.20;39.80
83500;DHT22;73433;50.908;13.746;2023-12-28T02:01:10;10.20;39.90
83500;DHT22;73433;50.908;13.746;2023-12-28T02:03:38;10.20;40.10
83500;DHT22;73433;50.908;13.746;2023-12-28T02:06:09;10.20;40.00
83500;DHT22;73433;50.908;13.746;2023-12-28T02:08:37;10.20;39.70
83500;DHT22;73433;50.908;13.746;2023-12-28T02:11:04;10.30;39.90
83500;DHT22;73433;50.908;13.746;2023-12-28T02:13:32;10.30;39.70
83500;DHT22;73433;50.908;13.746;2023-12-28T02:16:06;10.40;39.50
83500;DHT22;73433;50.908;13.746;2023-12-28T02:18:43;10.40;39.10
83500;DHT22;73433;50.908;13.746;2023-12-28T02:21:12;10.50;39.40
83500;DHT22;73433;50.908;13.746;2023-12-28T02:23:49;10.50;39.40
83500;DHT22;73433;50.908;13.746;2023-12-28T02:26:17;10.50;39.00
83500;DHT22;73433;50.908;13.746;2023-12-28T02:28:45;10.50;39.10
83500;DHT22;73433;50.908;13.746;2023-12-28T02:31:26;10.50;39.20
83500;DHT22;73433;50.908;13.746;2023-12-28T02:34:00;10.50;39.30
83500;DHT22;73433;50.908;13.746;2023-12-28T02:36:32;10.40;39.70
83500;DHT22;73433;50.908;13.746;2023-12-28T02:39:02;10.30;39.60
83500;DHT22;73433;50.908;13.746;2023-12-28T02:41:30;10.30;39.80
83500;DHT22;73433;50.908;13.746;2023-12-28T02:43:58;10.30;40.30
83500;DHT22;73433;50.908;13.746;2023-12-28T02:46:26;10.20;40.50
83500;DHT22;73433;50.908;13.746;2023-12-28T02:48:53;10.10;40.70
83500;DHT22;73433;50.908;13.746;2023-12-28T02:51:24;10.10;40.80
83500;DHT22;73433;50.908;13.746;2023-12-28T02:53:52;10.10;40.90
83500;DHT22;73433;50.908;13.746;2023-12-28T02:56:19;10.10;41.30
83500;DHT22;73433;50.908;13.746;2023-12-28T02:58:46;10.10;41.00
83500;DHT22;73433;50.908;13.746;2023-12-28T03:01:13;10.10;40.80
83500;DHT22;73433;50.908;13.746;2023-12-28T03:03:41;10.20;40.80
83500;DHT22;73433;50.908;13.746;2023-12-28T03:06:08;10.20;41.10
83500;DHT22;73433;50.908;13.746;2023-12-28T03:08:35;10.20;41.90
83500;DHT22;73433;50.908;13.746;2023-12-28T03:11:03;10.10;42.10
83500;DHT22;73433;50.908;13.746;2023-12-28T03:13:30;10.00;42.00
83500;DHT22;73433;50.908;13.746;2023-12-28T03:15:58;9.90;42.00
83500;DHT22;73433;50.908;13.746;2023-12-28T03:18:26;9.90;42.20
83500;DHT22;73433;50.908;13.746;2023-12-28T03:20:53;9.80;42.60
83500;DHT22;73433;50.908;13.746;2023-12-28T03:23:20;9.80;42.20
83500;DHT22;73433;50.908;13.746;2023-12-28T03:25:48;9.80;42.80
83500;DHT22;73433;50.908;13.746;2023-12-28T03:28:15;9.70;43.20
83500;DHT22;73433;50.908;13.746;2023-12-28T03:30:43;9.60;43.60
83500;DHT22;73433;50.908;13.746;2023-12-28T03:33:10;9.50;43.90
83500;DHT22;73433;50.908;13.746;2023-12-28T03:35:38;9.40;44.40
83500;DHT22;73433;50.908;13.746;2023-12-28T03:38:05;9.20;45.00
83500;DHT22;73433;50.908;13.746;2023-12-28T03:40:32;9.20;46.40
83500;DHT22;73433;50.908;13.746;2023-12-28T03:42:59;9.00;47.60
83500;DHT22;73433;50.908;13.746;2023-12-28T03:45:27;8.80;49.00
83500;DHT22;73433;50.908;13.746;2023-12-28T03:47:54;8.70;49.60
83500;DHT22;73433;50.908;13.746;2023-12-28T03:50:22;8.50;49.70
83500;DHT22;73433;50.908;13.746;2023-12-28T03:52:49;8.30;50.80
83500;DHT22;73433;50.908;13.746;2023-12-28T03:55:16;8.20;51.40
83500;DHT22;73433;50.908;13.746;2023-12-28T03:57:44;8.10;51.80
83500;DHT22;73433;50.908;13.746;2023-12-28T04:00:13;7.90;52.30
83500;DHT22;73433;50.908;13.746;2023-12-28T04:02:42;7.80;52.40
83500;DHT22;73433;50.908;13.746;2023-12-28T04:05:09;7.80;51.70
83500;DHT22;73433;50.908;13.746;2023-12-28T04:07:36;7.90;51.20
83500;DHT22;73433;50.908;13.746;2023-12-28T04:10:04;8.20;50.20
83500;DHT22;73433;50.908;13.746;2023-12-28T04:12:32;8.40;50.40
83500;DHT22;73433;50.908;13.746;2023-12-28T04:14:59;8.60;48.70
83500;DHT22;73433;50.908;13.746;2023-12-28T04:17:26;8.90;47.80
83500;DHT22;73433;50.908;13.746;2023-12-28T04:19:53;9.10;47.00
83500;DHT22;73433;50.908;13.746;2023-12-28T04:22:21;9.40;46.40
83500;DHT22;73433;50.908;13.746;2023-12-28T04:24:48;9.50;46.20
83500;DHT22;73433;50.908;13.746;2023-12-28T04:27:15;9.60;45.90
83500;DHT22;73433;50.908;13.746;2023-12-28T04:29:43;9.60;45.80
83500;DHT22;73433;50.908;13.746;2023-12-28T04:32:10;9.60;45.80
83500;DHT22;73433;50.908;13.746;2023-12-28T04:34:37;9.60;45.90
83500;DHT22;73433;50.908;13.746;2023-12-28T04:37:05;9.60;45.80
83500;DHT22;73433;50.908;13.746;2023-12-28T04:39:32;9.60;45.60
83500;DHT22;73433;50.908;13.746;2023-12-28T04:41:59;9.60;45.70
83500;DHT22;73433;50.908;13.746;2023-12-28T04:44:27;9.70;45.70
83500;DHT22;73433;50.908;13.746;2023-12-28T04:46:54;9.70;45.60
83500;DHT22;73433;50.908;13.746;2023-12-28T04:49:21;9.70;45.60
83500;DHT22;73433;50.908;13.746;2023-12-28T04:51:49;9.80;45.60
83500;DHT22;73433;50.908;13.746;2023-12-28T04:54:16;9.90;46.00
83500;DHT22;73433;50.908;13.746;2023-12-28T04:56:43;9.90;45.80
83500;DHT22;73433;50.908;13.746;2023-12-28T04:59:12;9.90;45.80
83500;DHT22;73433;50.908;13.746;2023-12-28T05:01:45;10.00;45.80
83500;DHT22;73433;50.908;13.746;2023-12-28T05:04:13;10.00;46.10
83500;DHT22;73433;50.908;13.746;2023-12-28T05:06:43;10.10;46.30
83500;DHT22;73433;50.908;13.746;2023-12-28T05:09:11;10.10;47.40
83500;DHT22;73433;50.908;13.746;2023-12-28T05:11:38;10.10;46.90
83500;DHT22;73433;50.908;13.746;2023-12-28T05:14:05;10.20;47.10
83500;DHT22;73433;50.908;13.746;2023-12-28T05:16:36;10.20;47.40
83500;DHT22;73433;50.908;13.746;2023-12-28T05:19:03;10.20;47.50
83500;DHT22;73433;50.908;13.746;2023-12-28T05:21:31;10.20;47.80
83500;DHT22;73433;50.908;13.746;2023-12-28T05:23:58;10.10;48.40
83500;DHT22;73433;50.908;13.746;2023-12-28T05:26:25;10.10;48.80
83500;DHT22;73433;50.908;13.746;2023-12-28T05:28:54;10.10;49.30
83500;DHT22;73433;50.908;13.746;2023-12-28T05:31:21;10.10;50.00
83500;DHT22;73433;50.908;13.746;2023-12-28T05:33:48;10.10;50.90
83500;DHT22;73433;50.908;13.746;2023-12-28T05:36:16;10.10;51.70
83500;DHT22;73433;50.908;13.746;2023-12-28T05:38:43;10.10;52.30
83500;DHT22;73433;50.908;13.746;2023-12-28T05:41:10;10.10;53.00
83500;DHT22;73433;50.908;13.746;2023-12-28T05:43:38;10.10;53.70
83500;DHT22;73433;50.908;13.746;2023-12-28T05:46:06;10.10;54.50
83500;DHT22;73433;50.908;13.746;2023-12-28T05:48:33;10.10;55.20
83500;DHT22;73433;50.908;13.746;2023-12-28T05:51:01;10.10;56.40
83500;DHT22;73433;50.908;13.746;2023-12-28T05:53:28;10.10;57.00
83500;DHT22;73433;50.908;13.746;2023-12-28T05:55:56;10.20;57.40
83500;DHT22;73433;50.908;13.746;2023-12-28T05:58:23;10.30;57.60
83500;DHT22;73433;50.908;13.746;2023-12-28T06:00:50;10.30;58.10
83500;DHT22;73433;50.908;13.746;2023-12-28T06:03:18;10.20;58.20
83500;DHT22;73433;50.908;13.746;2023-12-28T06:05:45;10.20;58.80
83500;DHT22;73433;50.908;13.746;2023-12-28T06:08:12;10.20;59.60
83500;DHT22;73433;50.908;13.746;2023-12-28T06:10:40;10.20;60.40
83500;DHT22;73433;50.908;13.746;2023-12-28T06:13:07;10.20;61.30
83500;DHT22;73433;50.908;13.746;2023-12-28T06:15:34;10.20;62.40
83500;DHT22;73433;50.908;13.746;2023-12-28T06:18:02;10.20;63.70
83500;DHT22;73433;50.908;13.746;2023-12-28T06:20:31;10.10;64.50
83500;DHT22;73433;50.908;13.746;2023-12-28T06:22:59;10.10;65.30
83500;DHT22;73433;50.908;13.746;2023-12-28T06:25:26;10.00;65.70
83500;DHT22;73433;50.908;13.746;2023-12-28T06:27:53;9.90;66.20
83500;DHT22;73433;50.908;13.746;2023-12-28T06:30:20;9.80;66.60
83500;DHT22;73433;50.908;13.746;2023-12-28T06:32:48;9.80;67.50
83500;DHT22;73433;50.908;13.746;2023-12-28T06:35:16;9.70;67.60
83500;DHT22;73433;50.908;13.746;2023-12-28T06:37:43;9.60;67.40
83500;DHT22;73433;50.908;13.746;2023-12-28T06:40:11;9.60;67.70
83500;DHT22;73433;50.908;13.746;2023-12-28T06:42:38;9.40;68.00
83500;DHT22;73433;50.908;13.746;2023-12-28T06:45:06;9.40;68.30
83500;DHT22;73433;50.908;13.746;2023-12-28T06:47:33;9.40;68.20
83500;DHT22;73433;50.908;13.746;2023-12-28T06:50:00;9.30;68.40
83500;DHT22;73433;50.908;13.746;2023-12-28T06:52:28;9.30;68.80
83500;DHT22;73433;50.908;13.746;2023-12-28T06:54:58;9.30;68.80
83500;DHT22;73433;50.908;13.746;2023-12-28T06:57:26;9.30;69.10
83500;DHT22;73433;50.908;13.746;2023-12-28T06:59:53;9.30;69.20
83500;DHT22;73433;50.908;13.746;2023-12-28T07:02:21;9.30;69.10
83500;DHT22;73433;50.908;13.746;2023-12-28T07:04:48;9.30;69.30
83500;DHT22;73433;50.908;13.746;2023-12-28T07:07:15;9.30;69.30
83500;DHT22;73433;50.908;13.746;2023-12-28T07:09:42;9.20;69.30
83500;DHT22;73433;50.908;13.746;2023-12-28T07:12:10;9.20;69.20
83500;DHT22;73433;50.908;13.746;2023-12-28T07:14:37;9.20;69.30
83500;DHT22;73433;50.908;13.746;2023-12-28T07:17:04;9.10;69.30
83500;DHT22;73433;50.908;13.746;2023-12-28T07:19:31;9.10;69.20
83500;DHT22;73433;50.908;13.746;2023-12-28T07:21:58;9.00;69.40
83500;DHT22;73433;50.908;13.746;2023-12-28T07:24:26;9.00;70.20
83500;DHT22;73433;50.908;13.746;2023-12-28T07:26:53;9.00;69.60
83500;DHT22;73433;50.908;13.746;2023-12-28T07:29:20;9.00;69.90
83500;DHT22;73433;50.908;13.746;2023-12-28T07:31:49;9.10;70.00
83500;DHT22;73433;50.908;13.746;2023-12-28T07:34:16;9.10;70.00
83500;DHT22;73433;50.908;13.746;2023-12-28T07:36:44;9.10;70.20
83500;DHT22;73433;50.908;13.746;2023-12-28T07:39:11;9.10;70.30
83500;DHT22;73433;50.908;13.746;2023-12-28T07:41:38;9.10;70.00
83500;DHT22;73433;50.908;13.746;2023-12-28T07:44:05;9.20;69.70
83500;DHT22;73433;50.908;13.746;2023-12-28T07:46:33;9.20;69.60
83500;DHT22;73433;50.908;13.746;2023-12-28T07:49:00;9.20;69.60
83500;DHT22;73433;50.908;13.746;2023-12-28T07:51:27;9.20;69.50
83500;DHT22;73433;50.908;13.746;2023-12-28T07:53:55;9.20;69.40
83500;DHT22;73433;50.908;13.746;2023-12-28T07:56:22;9.20;69.60
83500;DHT22;73433;50.908;13.746;2023-12-28T07:58:49;9.20;69.60
83500;DHT22;73433;50.908;13.746;2023-12-28T08:01:16;9.20;69.70
83500;DHT22;73433;50.908;13.746;2023-12-28T08:03:44;9.30;69.90
83500;DHT22;73433;50.908;13.746;2023-12-28T08:06:11;9.30;69.90
83500;DHT22;73433;50.908;13.746;2023-12-28T08:08:40;9.30;69.90
83500;DHT22;73433;50.908;13.746;2023-12-28T08:11:07;9.30;70.20
83500;DHT22;73433;50.908;13.746;2023-12-28T08:13:34;9.20;70.30
83500;DHT22;73433;50.908;13.746;2023-12-28T08:16:02;9.20;70.30
83500;DHT22;73433;50.908;13.746;2023-12-28T08:18:29;9.30;70.20
83500;DHT22;73433;50.908;13.746;2023-12-28T08:20:57;9.30;70.20
83500;DHT22;73433;50.908;13.746;2023-12-28T08:23:25;9.40;69.90
83500;DHT22;73433;50.908;13.746;2023-12-28T08:25:53;9.40;69.70
83500;DHT22;73433;50.908;13.746;2023-12-28T08:28:20;9.50;69.60
83500;DHT22;73433;50.908;13.746;2023-12-28T08:30:47;9.50;69.30
83500;DHT22;73433;50.908;13.746;2023-12-28T08:33:15;9.50;69.20
83500;DHT22;73433;50.908;13.746;2023-12-28T08:35:42;9.50;69.10
83500;DHT22;73433;50.908;13.746;2023-12-28T08:38:09;9.50;69.20
83500;DHT22;73433;50.908;13.746;2023-12-28T08:40:37;9.50;69.40
83500;DHT22;73433;50.908;13.746;2023-12-28T08:43:04;9.50;69.40
83500;DHT22;73433;50.908;13.746;2023-12-28T08:45:31;9.50;69.50
83500;DHT22;73433;50.908;13.746;2023-12-28T08:47:58;9.50;69.40
83500;DHT22;73433;50.908;13.746;2023-12-28T08:50:26;9.50;69.50
83500;DHT22;73433;50.908;13.746;2023-12-28T08:52:53;9.50;69.50
83500;DHT22;73433;50.908;13.746;2023-12-28T08:55:21;9.50;69.60
83500;DHT22;73433;50.908;13.746;2023-12-28T08:57:48;9.50;69.60
83500;DHT22;73433;50.908;13.746;2023-12-28T09:00:16;9.50;69.80
83500;DHT22;73433;50.908;13.746;2023-12-28T09:02:44;9.50;69.90
83500;DHT22;73433;50.908;13.746;2023-12-28T09:05:11;9.50;69.90
83500;DHT22;73433;50.908;13.746;2023-12-28T09:07:38;9.50;70.00
83500;DHT22;73433;50.908;13.746;2023-12-28T09:10:11;9.50;70.00
83500;DHT22;73433;50.908;13.746;2023-12-28T09:12:40;9.50;70.20
83500;DHT22;73433;50.908;13.746;2023-12-28T09:15:08;9.50;70.00
83500;DHT22;73433;50.908;13.746;2023-12-28T09:17:35;9.50;70.10
83500;DHT22;73433;50.908;13.746;2023-12-28T09:20:03;9.50;70.00
83500;DHT22;73433;50.908;13.746;2023-12-28T09:22:33;9.50;70.00
83500;DHT22;73433;50.908;13.746;2023-12-28T09:25:00;9.60;69.90
83500;DHT22;73433;50.908;13.746;2023-12-28T09:27:28;9.70;69.70
83500;DHT22;73433;50.908;13.746;2023-12-28T09:29:55;9.70;69.30
83500;DHT22;73433;50.908;13.746;2023-12-28T09:32:22;9.80;69.10
83500;DHT22;73433;50.908;13.746;2023-12-28T09:34:50;9.80;68.80
83500;DHT22;73433;50.908;13.746;2023-12-28T09:37:17;9.90;68.70
83500;DHT22;73433;50.908;13.746;2023-12-28T09:39:44;9.90;68.50
83500;DHT22;73433;50.908;13.746;2023-12-28T09:42:25;9.90;68.30
83500;DHT22;73433;50.908;13.746;2023-12-28T09:44:54;10.00;68.20
83500;DHT22;73433;50.908;13.746;2023-12-28T09:47:21;10.00;67.90
83500;DHT22;73433;50.908;13.746;2023-12-28T09:49:49;10.00;67.70
83500;DHT22;73433;50.908;13.746;2023-12-28T09:52:16;10.10;67.30
83500;DHT22;73433;50.908;13.746;2023-12-28T09:54:44;10.10;66.70
83500;DHT22;73433;50.908;13.746;2023-12-28T09:57:11;10.20;66.20
83500;DHT22;73433;50.908;13.746;2023-12-28T09:59:39;10.20;65.10
83500;DHT22;73433;50.908;13.746;2023-12-28T10:02:07;10.30;64.90
83500;DHT22;73433;50.908;13.746;2023-12-28T10:04:34;10.30;64.70
83500;DHT22;73433;50.908;13.746;2023-12-28T10:07:03;10.30;64.70
83500;DHT22;73433;50.908;13.746;2023-12-28T10:09:31;10.30;64.60
83500;DHT22;73433;50.908;13.746;2023-12-28T10:11:58;10.20;63.80
83500;DHT22;73433;50.908;13.746;2023-12-28T10:14:25;10.20;63.80
83500;DHT22;73433;50.908;13.746;2023-12-28T10:16:53;10.20;63.90
83500;DHT22;73433;50.908;13.746;2023-12-28T10:19:23;10.20;64.10
83500;DHT22;73433;50.908;13.746;2023-12-28T10:21:51;10.20;64.10
83500;DHT22;73433;50.908;13.746;2023-12-28T10:24:18;10.10;64.20
83500;DHT22;73433;50.908;13.746;2023-12-28T10:26:46;10.10;64.40
83500;DHT22;73433;50.908;13.746;2023-12-28T10:29:13;10.00;64.20
83500;DHT22;73433;50.908;13.746;2023-12-28T10:31:44;10.00;65.00
83500;DHT22;73433;50.908;13.746;2023-12-28T10:34:12;10.00;64.20
83500;DHT22;73433;50.908;13.746;2023-12-28T10:36:41;10.00;64.20
83500;DHT22;73433;50.908;13.746;2023-12-28T10:39:10;10.00;64.30
83500;DHT22;73433;50.908;13.746;2023-12-28T10:41:41;10.00;64.50
83500;DHT22;73433;50.908;13.746;2023-12-28T10:44:13;9.90;64.60
83500;DHT22;73433;50.908;13.746;2023-12-28T10:46:44;9.90;64.60
83500;DHT22;73433;50.908;13.746;2023-12-28T10:49:16;9.90;64.30
83500;DHT22;73433;50.908;13.746;2023-12-28T10:51:49;10.00;63.90
83500;DHT22;73433;50.908;13.746;2023-12-28T10:54:44;10.00;63.80
83500;DHT22;73433;50.908;13.746;2023-12-28T10:57:28;10.00;63.60
83500;DHT22;73433;50.908;13.746;2023-12-28T11:02:56;10.00;63.60
83500;DHT22;73433;50.908;13.746;2023-12-28T11:05:26;10.00;63.60
83500;DHT22;73433;50.908;13.746;2023-12-28T11:07:55;10.00;63.60
83500;DHT22;73433;50.908;13.746;2023-12-28T11:10:25;10.00;63.30
83500;DHT22;73433;50.908;13.746;2023-12-28T11:12:54;10.00;63.50
83500;DHT22;73433;50.908;13.746;2023-12-28T11:15:22;10.00;63.20
83500;DHT22;73433;50.908;13.746;2023-12-28T11:17:51;10.00;63.20
83500;DHT22;73433;50.908;13.746;2023-12-28T11:20:19;10.00;63.30
83500;DHT22;73433;50.908;13.746;2023-12-28T11:22:48;10.00;63.00
83500;DHT22;73433;50.908;13.746;2023-12-28T11:25:16;10.00;63.00
83500;DHT22;73433;50.908;13.746;2023-12-28T11:27:46;10.00;62.60
83500;DHT22;73433;50.908;13.746;2023-12-28T11:30:13;10.10;62.80
83500;DHT22;73433;50.908;13.746;2023-12-28T11:32:42;10.10;62.80
83500;DHT22;73433;50.908;13.746;2023-12-28T11:35:13;10.10;62.80
83500;DHT22;73433;50.908;13.746;2023-12-28T11:37:46;10.10;63.00
83500;DHT22;73433;50.908;13.746;2023-12-28T11:40:19;10.20;62.90
83500;DHT22;73433;50.908;13.746;2023-12-28T11:42:51;10.20;62.60
83500;DHT22;73433;50.908;13.746;2023-12-28T11:45:21;10.20;62.80
83500;DHT22;73433;50.908;13.746;2023-12-28T11:48:01;10.20;62.80
83500;DHT22;73433;50.908;13.746;2023-12-28T11:50:31;10.20;63.00
83500;DHT22;73433;50.908;13.746;2023-12-28T11:52:58;10.30;63.00
83500;DHT22;73433;50.908;13.746;2023-12-28T11:55:26;10.40;62.80
83500;DHT22;73433;50.908;13.746;2023-12-28T11:57:54;10.40;62.80
83500;DHT22;73433;50.908;13.746;2023-12-28T12:00:23;10.40;62.40
83500;DHT22;73433;50.908;13.746;2023-12-28T12:02:52;10.60;61.90
83500;DHT22;73433;50.908;13.746;2023-12-28T12:05:20;10.70;60.90
83500;DHT22;73433;50.908;13.746;2023-12-28T12:07:49;10.70;60.80
83500;DHT22;73433;50.908;13.746;2023-12-28T12:10:16;10.70;60.40
83500;DHT22;73433;50.908;13.746;2023-12-28T12:12:44;10.80;60.60
83500;DHT22;73433;50.908;13.746;2023-12-28T12:15:11;10.80;60.30
83500;DHT22;73433;50.908;13.746;2023-12-28T12:17:39;10.80;59.60
83500;DHT22;73433;50.908;13.746;2023-12-28T12:20:08;10.80;59.30
83500;DHT22;73433;50.908;13.746;2023-12-28T12:22:36;10.90;59.40
83500;DHT22;73433;50.908;13.746;2023-12-28T12:25:05;10.90;59.20
83500;DHT22;73433;50.908;13.746;2023-12-28T12:27:34;11.00;59.30
83500;DHT22;73433;50.908;13.746;2023-12-28T12:30:01;11.20;59.20
83500;DHT22;73433;50.908;13.746;2023-12-28T12:32:28;11.60;59.10
83500;DHT22;73433;50.908;13.746;2023-12-28T12:34:56;11.90;58.20
83500;DHT22;73433;50.908;13.746;2023-12-28T12:37:24;12.30;57.40
83500;DHT22;73433;50.908;13.746;2023-12-28T12:39:52;12.70;56.70
83500;DHT22;73433;50.908;13.746;2023-12-28T12:42:21;12.80;55.30
83500;DHT22;73433;50.908;13.746;2023-12-28T12:44:49;12.70;54.30
83500;DHT22;73433;50.908;13.746;2023-12-28T12:47:17;12.60;54.20
83500;DHT22;73433;50.908;13.746;2023-12-28T12:49:44;12.50;54.10
83500;DHT22;73433;50.908;13.746;2023-12-28T12:52:12;12.30;54.10
83500;DHT22;73433;50.908;13.746;2023-12-28T12:54:40;12.20;54.30
83500;DHT22;73433;50.908;13.746;2023-12-28T12:57:07;12.10;54.00
83500;DHT22;73433;50.908;13.746;2023-12-28T12:59:34;12.10;54.20
83500;DHT22;73433;50.908;13.746;2023-12-28T13:02:02;12.20;54.30
83500;DHT22;73433;50.908;13.746;2023-12-28T13:04:29;12.30;54.30
83500;DHT22;73433;50.908;13.746;2023-12-28T13:06:56;12.30;54.80
83500;DHT22;73433;50.908;13.746;2023-12-28T13:09:24;12.40;54.60
83500;DHT22;73433;50.908;13.746;2023-12-28T13:11:52;12.40;54.50
83500;DHT22;73433;50.908;13.746;2023-12-28T13:14:19;12.40;55.00
83500;DHT22;73433;50.908;13.746;2023-12-28T13:16:47;12.40;54.70
83500;DHT22;73433;50.908;13.746;2023-12-28T13:19:23;12.40;54.40
83500;DHT22;73433;50.908;13.746;2023-12-28T13:21:51;12.30;54.40
83500;DHT22;73433;50.908;13.746;2023-12-28T13:24:18;12.30;54.80
83500;DHT22;73433;50.908;13.746;2023-12-28T13:26:45;12.40;54.50
83500;DHT22;73433;50.908;13.746;2023-12-28T13:29:13;12.50;54.10
83500;DHT22;73433;50.908;13.746;2023-12-28T13:31:40;12.50;53.90
83500;DHT22;73433;50.908;13.746;2023-12-28T13:34:08;12.60;54.00
83500;DHT22;73433;50.908;13.746;2023-12-28T13:36:35;13.00;53.90
83500;DHT22;73433;50.908;13.746;2023-12-28T13:39:03;13.20;53.00
83500;DHT22;73433;50.908;13.746;2023-12-28T13:41:30;13.70;53.10
83500;DHT22;73433;50.908;13.746;2023-12-28T13:43:58;14.30;51.60
83500;DHT22;73433;50.908;13.746;2023-12-28T13:46:31;14.70;50.40
83500;DHT22;73433;50.908;13.746;2023-12-28T13:48:58;15.10;49.20
83500;DHT22;73433;50.908;13.746;2023-12-28T13:51:25;15.50;48.80
83500;DHT22;73433;50.908;13.746;2023-12-28T13:53:52;15.80;47.60
83500;DHT22;73433;50.908;13.746;2023-12-28T13:56:20;16.20;47.20
83500;DHT22;73433;50.908;13.746;2023-12-28T13:58:47;16.30;45.70
83500;DHT22;73433;50.908;13.746;2023-12-28T14:01:14;16.30;45.80
83500;DHT22;73433;50.908;13.746;2023-12-28T14:03:42;16.20;45.00
83500;DHT22;73433;50.908;13.746;2023-12-28T14:06:11;16.10;45.10
83500;DHT22;73433;50.908;13.746;2023-12-28T14:08:38;16.00;45.00
83500;DHT22;73433;50.908;13.746;2023-12-28T14:11:05;16.00;44.70
83500;DHT22;73433;50.908;13.746;2023-12-28T14:13:34;15.60;44.80
83500;DHT22;73433;50.908;13.746;2023-12-28T14:16:03;15.20;45.30
83500;DHT22;73433;50.908;13.746;2023-12-28T14:18:31;14.70;46.00
83500;DHT22;73433;50.908;13.746;2023-12-28T14:20:58;14.30;46.70
83500;DHT22;73433;50.908;13.746;2023-12-28T14:23:25;13.60;47.30
83500;DHT22;73433;50.908;13.746;2023-12-28T14:25:53;13.00;48.30
83500;DHT22;73433;50.908;13.746;2023-12-28T14:28:21;12.40;50.30
83500;DHT22;73433;50.908;13.746;2023-12-28T14:30:51;11.80;50.90
83500;DHT22;73433;50.908;13.746;2023-12-28T14:33:18;11.30;52.50
83500;DHT22;73433;50.908;13.746;2023-12-28T14:35:46;10.90;54.10
83500;DHT22;73433;50.908;13.746;2023-12-28T14:38:14;10.60;55.40
83500;DHT22;73433;50.908;13.746;2023-12-28T14:40:42;10.30;56.40
83500;DHT22;73433;50.908;13.746;2023-12-28T14:43:09;10.10;57.40
83500;DHT22;73433;50.908;13.746;2023-12-28T14:45:36;9.90;58.20
83500;DHT22;73433;50.908;13.746;2023-12-28T14:48:04;9.70;59.10
83500;DHT22;73433;50.908;13.746;2023-12-28T14:50:31;9.60;59.70
83500;DHT22;73433;50.908;13.746;2023-12-28T14:52:59;9.40;60.30
83500;DHT22;73433;50.908;13.746;2023-12-28T14:55:26;9.30;60.80
83500;DHT22;73433;50.908;13.746;2023-12-28T14:57:54;9.20;61.20
83500;DHT22;73433;50.908;13.746;2023-12-28T15:00:22;9.10;61.70
83500;DHT22;73433;50.908;13.746;2023-12-28T15:02:49;9.00;62.30
83500;DHT22;73433;50.908;13.746;2023-12-28T15:05:16;8.90;62.70
83500;DHT22;73433;50.908;13.746;2023-12-28T15:07:44;8.80;63.00
83500;DHT22;73433;50.908;13.746;2023-12-28T15:10:11;8.70;63.40
83500;DHT22;73433;50.908;13.746;2023-12-28T15:12:39;8.60;63.70
83500;DHT22;73433;50.908;13.746;2023-12-28T15:15:07;8.50;64.30
83500;DHT22;73433;50.908;13.746;2023-12-28T15:17:34;8.50;64.70
83500;DHT22;73433;50.908;13.746;2023-12-28T15:20:02;8.40;64.90
83500;DHT22;73433;50.908;13.746;2023-12-28T15:22:30;8.40;65.60
83500;DHT22;73433;50.908;13.746;2023-12-28T15:24:59;8.30;65.80
83500;DHT22;73433;50.908;13.746;2023-12-28T15:27:27;8.30;66.10
83500;DHT22;73433;50.908;13.746;2023-12-28T15:29:54;8.20;66.60